Time;durP1;ratioP1;P1;durP2;ratioP2;P2;SDS_P1;SDS_P2;PMS_P1;PMS_P2;Temp;Humidity;BMP_temperature;BMP_pressure;BME280_temperature;BME280_humidity;BME280_pressure;Samples;Min_cycle;Max_cycle;Signal;HPM_P1;HPM_P2
2023/04/14 00:01:25;;;;;;;7.30;2.00;;;5.10;99.90;;;;;;5051959;28;20280;-73
2023/04/14 00:03:51;;;;;;;3.80;1.43;;;5.20;99.90;;;;;;5055494;28;20376;-73
2023/04/14 00:06:17;;;;;;;2.50;1.40;;;5.20;99.90;;;;;;5056178;28;20262;-72
2023/04/14 00:08:42;;;;;;;2.70;1.10;;;5.30;99.90;;;;;;5061553;28;20900;-73
2023/04/14 00:11:08;;;;;;;5.07;2.20;;;5.20;99.90;;;;;;5062586;28;20201;-73
2023/04/14 00:13:34;;;;;;;3.80;1.77;;;5.20;99.90;;;;;;5059614;28;20178;-73
2023/04/14 00:15:59;;;;;;;3.20;1.37;;;5.20;99.90;;;;;;5058571;28;20188;-73
2023/04/14 00:18:25;;;;;;;4.73;1.50;;;5.20;99.90;;;;;;5065511;28;20176;-73
2023/04/14 00:20:53;;;;;;;2.70;1.33;;;5.20;99.90;;;;;;5060895;28;20570;-73
2023/04/14 00:23:19;;;;;;;4.00;1.43;;;5.20;99.90;;;;;;5061144;28;20732;-72
2023/04/14 00:25:45;;;;;;;3.23;1.23;;;5.20;99.90;;;;;;5059717;28;20629;-72
2023/04/14 00:28:10;;;;;;;4.63;1.73;;;5.20;99.90;;;;;;5065024;28;20863;-74
2023/04/14 00:30:36;;;;;;;7.43;1.80;;;5.20;99.90;;;;;;5067752;28;20181;-73
2023/04/14 00:33:01;;;;;;;3.93;1.57;;;5.20;99.90;;;;;;5068697;28;20189;-72
2023/04/14 00:35:27;;;;;;;3.93;1.83;;;5.20;99.90;;;;;;5066749;28;20211;-73
2023/04/14 00:37:55;;;;;;;6.40;2.10;;;5.20;99.90;;;;;;5058004;28;20603;-72
2023/04/14 00:40:21;;;;;;;2.47;1.13;;;5.10;99.90;;;;;;5059728;28;20532;-73
2023/04/14 00:42:47;;;;;;;3.47;1.10;;;5.10;99.90;;;;;;5060081;28;20451;-73
2023/04/14 00:45:13;;;;;;;2.80;1.33;;;5.10;99.90;;;;;;5059096;28;20206;-73
2023/04/14 00:47:41;;;;;;;6.20;1.47;;;5.10;99.90;;;;;;5062937;28;20423;-73
2023/04/14 00:50:08;;;;;;;3.50;1.10;;;5.10;99.90;;;;;;5061989;28;20415;-73
2023/04/14 00:52:36;;;;;;;2.87;1.40;;;5.10;99.90;;;;;;5059187;28;20537;-74
2023/04/14 00:55:03;;;;;;;7.17;1.47;;;5.10;99.90;;;;;;5054359;28;20424;-73
2023/04/14 00:57:29;;;;;;;9.23;1.97;;;5.00;99.90;;;;;;5061471;28;20422;-73
2023/04/14 01:00:00;;;;;;;5.53;0.97;;;5.00;99.90;;;;;;5061891;28;20428;-73
2023/04/14 01:02:25;;;;;;;2.03;1.03;;;5.00;99.90;;;;;;5068942;28;20429;-73
2023/04/14 01:04:51;;;;;;;6.00;1.57;;;4.90;99.90;;;;;;5067986;28;20468;-73
2023/04/14 01:07:21;;;;;;;2.10;1.27;;;4.90;99.90;;;;;;5059248;28;20887;-73
2023/04/14 01:09:46;;;;;;;7.40;1.80;;;4.80;99.90;;;;;;5056471;28;20268;-74
2023/04/14 01:12:31;;;;;;;9.57;1.53;;;4.70;99.90;;;;;;5059849;28;20784;-73
2023/04/14 01:15:09;;;;;;;2.47;1.20;;;4.70;99.90;;;;;;5052096;28;20170;-73
2023/04/14 01:17:37;;;;;;;3.10;1.17;;;4.70;99.90;;;;;;5061404;28;20805;-73
2023/04/14 01:20:19;;;;;;;4.60;1.20;;;4.60;99.90;;;;;;5064118;28;20435;-73
2023/04/14 01:22:53;;;;;;;9.90;1.83;;;4.60;99.90;;;;;;5055963;28;20420;-73
2023/04/14 01:25:31;;;;;;;6.87;1.80;;;4.50;99.90;;;;;;5065416;28;20461;-73
2023/04/14 01:28:33;;;;;;;3.30;1.60;;;4.50;99.90;;;;;;5057605;28;20427;-73
2023/04/14 01:31:21;;;;;;;4.23;1.40;;;4.40;99.90;;;;;;5027780;28;20917;-72
2023/04/14 01:34:03;;;;;;;2.33;0.90;;;4.50;99.90;;;;;;5056293;28;20420;-72
2023/04/14 01:36:59;;;;;;;5.80;1.00;;;4.50;99.90;;;;;;5064463;28;20781;-73
2023/04/14 01:39:33;;;;;;;3.90;1.20;;;4.50;99.90;;;;;;5057209;28;20920;-72
2023/04/14 01:42:00;;;;;;;6.93;1.43;;;4.50;99.90;;;;;;5057413;28;20424;-72
2023/04/14 01:44:29;;;;;;;7.23;1.27;;;4.60;99.90;;;;;;5060297;28;20525;-74
2023/04/14 01:47:03;;;;;;;9.73;2.07;;;4.50;99.90;;;;;;5062924;28;20431;-73
2023/04/14 01:49:31;;;;;;;2.40;1.03;;;4.50;99.90;;;;;;5062497;28;20434;-73
2023/04/14 01:51:57;;;;;;;2.50;1.13;;;4.50;99.90;;;;;;5051712;28;20447;-73
2023/04/14 01:54:25;;;;;;;9.27;1.40;;;4.40;99.90;;;;;;5056862;28;20428;-72
2023/04/14 01:56:52;;;;;;;1.67;1.00;;;4.40;99.90;;;;;;5063205;28;20539;-73
2023/04/14 01:59:20;;;;;;;2.30;1.00;;;4.40;99.90;;;;;;5062559;28;20455;-73
2023/04/14 02:01:49;;;;;;;4.03;1.00;;;4.40;99.90;;;;;;5063261;28;20407;-73
2023/04/14 02:04:16;;;;;;;4.20;1.90;;;4.40;99.90;;;;;;5056539;28;20409;-73
2023/04/14 02:06:42;;;;;;;4.27;1.23;;;4.40;99.90;;;;;;5056427;28;20491;-74
2023/04/14 02:09:11;;;;;;;9.90;2.00;;;4.40;99.90;;;;;;5056779;28;20435;-73
2023/04/14 02:11:38;;;;;;;2.80;1.60;;;4.40;99.90;;;;;;5059670;28;20450;-73
2023/04/14 02:14:06;;;;;;;5.67;1.67;;;4.30;99.90;;;;;;5059138;28;20419;-73
2023/04/14 02:16:34;;;;;;;5.93;1.77;;;4.30;99.90;;;;;;5060580;28;20424;-73
2023/04/14 02:19:03;;;;;;;6.77;1.80;;;4.30;99.90;;;;;;5059130;28;20515;-73
2023/04/14 02:21:30;;;;;;;5.23;1.43;;;4.20;99.90;;;;;;5062810;28;20485;-73
2023/04/14 02:23:55;;;;;;;11.60;1.77;;;4.20;99.90;;;;;;5060131;28;20451;-73
2023/04/14 02:26:25;;;;;;;2.27;1.00;;;4.20;99.90;;;;;;5064032;28;20499;-73
2023/04/14 02:29:11;;;;;;;1.97;0.93;;;4.20;99.90;;;;;;5064466;28;20227;-73
2023/04/14 02:31:44;;;;;;;3.00;1.13;;;4.10;99.90;;;;;;5056829;28;20523;-74
2023/04/14 02:34:12;;;;;;;5.30;1.10;;;4.00;99.90;;;;;;5057059;28;20505;-74
2023/04/14 02:36:46;;;;;;;4.10;1.83;;;4.00;99.90;;;;;;5054423;28;21245;-74
2023/04/14 02:39:24;;;;;;;2.10;1.07;;;3.90;99.90;;;;;;5057274;28;20852;-74
2023/04/14 02:42:01;;;;;;;3.47;1.70;;;3.90;99.90;;;;;;5060713;28;20432;-74
2023/04/14 02:44:31;;;;;;;10.53;1.27;;;3.80;99.90;;;;;;5063693;28;20435;-73
2023/04/14 02:47:02;;;;;;;5.40;2.00;;;3.70;99.90;;;;;;5051369;28;20448;-73
2023/04/14 02:49:33;;;;;;;2.10;1.07;;;3.60;99.90;;;;;;5061425;28;20420;-73
2023/04/14 02:51:59;;;;;;;1.90;1.40;;;3.60;99.90;;;;;;5053496;28;20461;-73
2023/04/14 02:54:26;;;;;;;2.60;1.20;;;3.50;99.90;;;;;;5058492;28;20842;-73
2023/04/14 02:56:52;;;;;;;2.47;1.23;;;3.50;99.90;;;;;;5057439;28;20844;-73
2023/04/14 02:59:20;;;;;;;2.03;1.00;;;3.50;99.90;;;;;;5059819;28;20428;-73
2023/04/14 03:01:47;;;;;;;4.27;1.30;;;3.40;99.90;;;;;;5053721;28;20821;-74
2023/04/14 03:04:14;;;;;;;2.63;1.30;;;3.30;99.90;;;;;;5057921;28;20412;-74
2023/04/14 03:06:40;;;;;;;4.83;1.40;;;3.20;99.90;;;;;;5057430;28;20464;-73
2023/04/14 03:09:07;;;;;;;2.70;1.43;;;3.20;99.90;;;;;;5052106;28;20452;-73
2023/04/14 03:11:35;;;;;;;2.87;1.00;;;3.20;99.90;;;;;;5061104;28;20412;-73
2023/04/14 03:14:02;;;;;;;5.83;1.40;;;3.10;99.90;;;;;;5056999;28;20420;-73
2023/04/14 03:16:29;;;;;;;2.70;1.30;;;3.10;99.90;;;;;;5056531;28;20439;-73
2023/04/14 03:18:55;;;;;;;6.23;1.20;;;3.10;99.90;;;;;;5059680;28;21156;-73
2023/04/14 03:21:22;;;;;;;7.47;1.10;;;3.20;99.90;;;;;;5058330;28;20424;-73
2023/04/14 03:23:51;;;;;;;2.87;1.10;;;3.20;99.90;;;;;;5053470;28;20452;-73
2023/04/14 03:26:19;;;;;;;9.63;1.13;;;3.20;99.90;;;;;;5054276;28;20459;-73
2023/04/14 03:28:47;;;;;;;5.03;1.27;;;3.30;99.90;;;;;;5054560;28;20793;-73
2023/04/14 03:31:17;;;;;;;3.50;1.10;;;3.30;99.90;;;;;;5058680;28;20416;-73
2023/04/14 03:33:45;;;;;;;3.73;1.50;;;3.20;99.90;;;;;;5053124;28;20431;-73
2023/04/14 03:36:13;;;;;;;7.43;1.40;;;3.20;99.90;;;;;;5063727;28;20455;-73
2023/04/14 03:38:40;;;;;;;2.03;1.13;;;3.20;99.90;;;;;;5059882;28;20494;-73
2023/04/14 03:41:08;;;;;;;7.10;2.30;;;3.10;99.90;;;;;;5056343;28;20416;-73
2023/04/14 03:43:35;;;;;;;5.53;1.53;;;3.00;99.90;;;;;;5061004;28;20416;-73
2023/04/14 03:46:04;;;;;;;2.60;1.00;;;3.00;99.90;;;;;;5057473;28;20956;-73
2023/04/14 03:48:33;;;;;;;3.63;1.73;;;2.90;99.90;;;;;;5055935;28;20778;-73
2023/04/14 03:51:01;;;;;;;4.97;1.70;;;2.90;99.90;;;;;;5056343;28;20784;-73
2023/04/14 03:53:29;;;;;;;10.70;2.07;;;2.80;99.90;;;;;;5058534;28;20443;-75
2023/04/14 03:55:58;;;;;;;3.37;1.37;;;2.80;99.90;;;;;;5056841;28;20787;-73
2023/04/14 03:58:26;;;;;;;3.10;1.90;;;2.80;99.90;;;;;;5053167;28;20431;-73
2023/04/14 04:00:54;;;;;;;4.93;1.30;;;2.70;99.90;;;;;;5061155;28;20444;-73
2023/04/14 04:03:21;;;;;;;2.90;1.00;;;2.60;99.90;;;;;;5053726;28;20774;-73
2023/04/14 04:05:47;;;;;;;2.13;1.00;;;2.60;99.90;;;;;;5050991;28;20477;-73
2023/04/14 04:08:13;;;;;;;9.50;1.97;;;2.60;99.90;;;;;;5051069;28;20470;-73
2023/04/14 04:10:41;;;;;;;5.90;1.80;;;2.50;99.90;;;;;;5061720;28;20510;-73
2023/04/14 04:13:11;;;;;;;6.90;1.37;;;2.40;99.90;;;;;;5065230;28;20416;-73
2023/04/14 04:15:38;;;;;;;2.20;1.10;;;2.40;99.90;;;;;;5062520;28;20459;-73
2023/04/14 04:18:06;;;;;;;4.03;1.77;;;2.30;99.90;;;;;;5057289;28;20427;-73
2023/04/14 04:20:33;;;;;;;4.13;1.20;;;2.20;99.90;;;;;;5062342;28;20423;-73
2023/04/14 04:23:01;;;;;;;4.60;2.27;;;2.10;99.90;;;;;;5064817;28;20423;-73
2023/04/14 04:25:27;;;;;;;3.80;1.63;;;2.10;99.90;;;;;;5063116;28;20461;-73
2023/04/14 04:27:52;;;;;;;2.40;1.10;;;2.10;99.90;;;;;;5056504;28;20458;-72
2023/04/14 04:30:21;;;;;;;10.77;2.33;;;2.00;99.90;;;;;;5057713;28;20308;-72
2023/04/14 04:32:47;;;;;;;2.20;0.90;;;2.10;99.90;;;;;;5053097;28;20273;-72
2023/04/14 04:35:14;;;;;;;2.97;1.60;;;2.00;99.90;;;;;;5061172;28;20846;-72
2023/04/14 04:37:41;;;;;;;3.67;1.60;;;2.00;99.90;;;;;;5058150;28;20193;-72
2023/04/14 04:40:07;;;;;;;3.83;1.37;;;1.90;99.90;;;;;;5050040;28;20543;-72
2023/04/14 04:42:32;;;;;;;3.83;1.20;;;1.90;99.90;;;;;;5050519;28;20906;-72
2023/04/14 04:44:58;;;;;;;5.13;1.60;;;1.90;99.90;;;;;;5053877;28;20562;-72
2023/04/14 04:47:24;;;;;;;5.60;1.53;;;1.80;99.90;;;;;;5051676;28;20219;-72
2023/04/14 04:49:49;;;;;;;3.10;1.50;;;1.80;99.90;;;;;;5052598;28;20224;-72
2023/04/14 04:52:15;;;;;;;2.53;1.00;;;1.90;99.90;;;;;;5060239;28;20217;-72
2023/04/14 04:54:40;;;;;;;3.90;1.70;;;1.80;99.90;;;;;;5058494;28;20185;-72
2023/04/14 04:57:06;;;;;;;5.30;2.20;;;1.80;99.90;;;;;;5063248;28;20181;-72
2023/04/14 04:59:32;;;;;;;2.30;1.17;;;1.80;99.90;;;;;;5065030;28;20182;-73
2023/04/14 05:01:57;;;;;;;6.93;2.17;;;1.80;99.90;;;;;;5061734;28;20223;-73
2023/04/14 05:04:23;;;;;;;6.43;1.53;;;1.80;99.90;;;;;;5054342;28;20548;-73
2023/04/14 05:06:48;;;;;;;24.30;2.40;;;1.70;99.90;;;;;;5057620;28;20201;-74
2023/04/14 05:09:14;;;;;;;4.20;2.17;;;1.80;99.90;;;;;;5059006;28;20502;-74
2023/04/14 05:11:40;;;;;;;2.43;1.77;;;1.80;99.90;;;;;;5053617;28;20181;-73
2023/04/14 05:14:05;;;;;;;14.93;2.00;;;1.80;99.90;;;;;;5057837;28;20177;-73
2023/04/14 05:16:32;;;;;;;2.13;1.07;;;1.80;99.90;;;;;;5063295;28;20276;-72
2023/04/14 05:18:58;;;;;;;2.93;1.50;;;1.80;99.90;;;;;;5057547;28;20177;-73
2023/04/14 05:21:23;;;;;;;2.93;1.10;;;1.90;99.90;;;;;;5056119;28;20427;-73
2023/04/14 05:23:49;;;;;;;3.20;1.37;;;1.90;99.90;;;;;;5060828;28;20669;-73
2023/04/14 05:26:15;;;;;;;5.73;1.07;;;1.80;99.90;;;;;;5054346;28;20228;-73
2023/04/14 05:28:41;;;;;;;3.60;1.40;;;1.80;99.90;;;;;;5060322;28;20250;-73
2023/04/14 05:31:07;;;;;;;5.10;1.23;;;1.90;99.90;;;;;;5059840;28;20412;-73
2023/04/14 05:33:35;;;;;;;5.40;1.50;;;1.90;99.90;;;;;;5061340;28;20180;-73
2023/04/14 05:36:01;;;;;;;2.17;1.40;;;1.90;99.90;;;;;;5053090;28;20295;-73
2023/04/14 05:38:27;;;;;;;4.33;1.37;;;2.10;99.90;;;;;;5053971;28;20909;-71
2023/04/14 05:40:52;;;;;;;3.40;1.27;;;2.10;99.90;;;;;;5057592;28;20567;-74
2023/04/14 05:43:18;;;;;;;4.63;1.70;;;2.20;99.90;;;;;;5060320;28;20185;-74
2023/04/14 05:45:46;;;;;;;3.43;2.13;;;2.20;99.90;;;;;;5058063;28;20283;-74
2023/04/14 05:48:13;;;;;;;11.10;3.37;;;2.40;99.90;;;;;;5051633;28;20666;-73
2023/04/14 05:50:39;;;;;;;8.37;3.03;;;2.50;99.90;;;;;;5060500;28;21036;-74
2023/04/14 05:53:05;;;;;;;8.70;3.27;;;2.60;99.90;;;;;;5065731;28;20420;-73
2023/04/14 05:55:31;;;;;;;8.83;2.70;;;2.70;99.90;;;;;;5058502;28;20191;-74
2023/04/14 05:57:57;;;;;;;2.37;1.30;;;2.80;99.90;;;;;;5057028;28;20173;-74
2023/04/14 06:00:24;;;;;;;7.50;2.10;;;2.90;99.90;;;;;;5055097;28;20424;-74
2023/04/14 06:02:50;;;;;;;5.60;1.93;;;3.10;99.90;;;;;;5055860;28;20642;-75
2023/04/14 06:05:16;;;;;;;4.07;2.20;;;3.20;99.90;;;;;;5056811;28;20868;-74
2023/04/14 06:07:42;;;;;;;5.87;2.10;;;3.30;99.90;;;;;;5033176;28;20424;-74
2023/04/14 06:10:09;;;;;;;6.67;2.00;;;3.40;99.90;;;;;;5045932;28;20185;-74
2023/04/14 06:12:36;;;;;;;5.77;2.20;;;3.50;99.90;;;;;;5049446;28;20178;-74
2023/04/14 06:15:02;;;;;;;4.30;1.53;;;3.60;99.90;;;;;;5061601;28;20431;-73
2023/04/14 06:17:28;;;;;;;4.10;1.27;;;3.80;99.90;;;;;;5058648;28;20456;-74
2023/04/14 06:19:54;;;;;;;2.33;1.00;;;3.90;99.90;;;;;;5057846;28;20815;-74
2023/04/14 06:22:19;;;;;;;6.07;1.50;;;4.10;99.90;;;;;;5056520;28;20194;-74
2023/04/14 06:24:45;;;;;;;3.30;1.10;;;4.20;99.90;;;;;;5061163;28;20256;-74
2023/04/14 06:27:11;;;;;;;1.83;0.87;;;4.30;99.90;;;;;;5054629;28;20570;-74
2023/04/14 06:29:36;;;;;;;2.80;1.27;;;4.40;99.90;;;;;;5054133;28;20515;-74
2023/04/14 06:32:02;;;;;;;4.97;0.90;;;4.50;99.90;;;;;;5064169;28;20699;-74
2023/04/14 06:34:28;;;;;;;10.43;1.10;;;4.60;99.90;;;;;;5055139;28;20186;-74
2023/04/14 06:36:55;;;;;;;2.40;1.00;;;4.70;99.90;;;;;;5057523;28;20193;-72
2023/04/14 06:39:21;;;;;;;2.67;0.90;;;4.90;99.90;;;;;;5060073;28;20185;-73
2023/04/14 06:41:47;;;;;;;2.40;1.07;;;5.00;99.90;;;;;;5059257;28;20462;-78
2023/04/14 06:44:13;;;;;;;3.40;1.07;;;5.20;99.90;;;;;;5055214;28;20460;-78
2023/04/14 06:46:39;;;;;;;4.00;1.30;;;5.30;99.90;;;;;;5056438;28;20252;-78
2023/04/14 06:49:06;;;;;;;3.43;1.03;;;5.60;99.90;;;;;;5056724;28;20432;-78
2023/04/14 06:51:32;;;;;;;6.83;1.80;;;5.70;99.90;;;;;;5058494;28;20193;-78
2023/04/14 06:53:58;;;;;;;1.63;1.17;;;5.90;99.90;;;;;;5058403;28;20470;-78
2023/04/14 06:56:24;;;;;;;4.67;1.10;;;6.00;99.90;;;;;;5060954;28;20435;-78
2023/04/14 06:58:50;;;;;;;2.13;0.83;;;6.30;99.90;;;;;;5061605;28;20213;-78
2023/04/14 07:01:15;;;;;;;1.87;1.03;;;6.30;99.90;;;;;;5059763;28;20188;-78
2023/04/14 07:03:42;;;;;;;3.37;1.17;;;6.50;99.90;;;;;;5061614;28;20181;-78
2023/04/14 07:06:10;;;;;;;3.20;1.13;;;6.70;99.90;;;;;;5061982;28;20646;-78
2023/04/14 07:08:37;;;;;;;4.53;1.43;;;6.80;99.90;;;;;;5057299;28;20809;-78
2023/04/14 07:11:09;;;;;;;2.93;1.00;;;7.00;99.90;;;;;;5063544;28;20432;-78
2023/04/14 07:13:35;;;;;;;4.80;0.60;;;7.30;99.70;;;;;;5063716;28;20422;-78
2023/04/14 07:16:02;;;;;;;4.60;1.27;;;7.80;98.80;;;;;;5055060;28;20440;-78
2023/04/14 07:18:28;;;;;;;2.17;0.90;;;8.10;98.50;;;;;;5058826;28;20423;-78
2023/04/14 07:20:54;;;;;;;1.37;0.57;;;8.40;98.60;;;;;;5057150;28;20420;-78
2023/04/14 07:23:20;;;;;;;2.70;0.90;;;8.70;98.00;;;;;;5058124;28;20842;-81
2023/04/14 07:25:57;;;;;;;3.30;0.83;;;9.00;96.50;;;;;;5059328;28;20205;-81
2023/04/14 07:28:24;;;;;;;1.97;0.87;;;9.60;95.70;;;;;;5054893;28;20508;-81
2023/04/14 07:30:50;;;;;;;2.77;1.03;;;10.50;93.70;;;;;;5063893;28;20415;-80
2023/04/14 07:33:21;;;;;;;4.80;1.30;;;11.40;92.10;;;;;;5055666;28;20880;-80
2023/04/14 07:35:48;;;;;;;4.20;1.43;;;12.10;91.10;;;;;;5057143;28;21276;-80
2023/04/14 07:38:14;;;;;;;2.67;1.10;;;12.50;90.60;;;;;;5055404;28;20846;-78
2023/04/14 07:40:40;;;;;;;3.10;1.23;;;13.10;87.70;;;;;;5051098;28;20511;-78
2023/04/14 07:43:06;;;;;;;2.30;0.90;;;14.20;82.20;;;;;;5058605;28;20200;-77
2023/04/14 07:45:32;;;;;;;2.10;1.00;;;14.40;80.50;;;;;;5061568;28;20963;-80
2023/04/14 07:47:57;;;;;;;1.93;0.63;;;14.40;80.00;;;;;;5058679;28;20181;-80
2023/04/14 07:50:24;;;;;;;5.57;2.37;;;14.50;79.30;;;;;;5056690;28;20185;-80
2023/04/14 07:52:49;;;;;;;4.70;1.40;;;14.10;80.70;;;;;;5058169;28;20190;-80
2023/04/14 07:55:15;;;;;;;3.33;1.00;;;13.80;80.10;;;;;;5053888;28;20427;-80
2023/04/14 07:57:41;;;;;;;3.30;1.33;;;13.80;78.60;;;;;;5059359;28;20176;-80
2023/04/14 08:00:10;;;;;;;8.03;1.37;;;13.50;82.00;;;;;;5060186;28;20749;-79
2023/04/14 08:02:36;;;;;;;2.13;1.00;;;13.90;80.30;;;;;;5047173;28;20217;-80
2023/04/14 08:05:02;;;;;;;3.90;1.07;;;14.00;80.20;;;;;;5053332;28;20796;-79
2023/04/14 08:07:28;;;;;;;1.60;0.67;;;14.30;79.00;;;;;;5055067;28;20431;-80
2023/04/14 08:09:53;;;;;;;1.40;0.50;;;14.20;76.50;;;;;;5062157;28;20415;-79
2023/04/14 08:12:19;;;;;;;1.50;0.70;;;13.70;80.00;;;;;;5055697;28;20208;-79
2023/04/14 08:14:46;;;;;;;2.50;1.03;;;14.10;78.20;;;;;;5060583;28;20572;-79
2023/04/14 08:17:12;;;;;;;6.23;1.00;;;14.50;77.50;;;;;;5055751;28;20178;-80
2023/04/14 08:19:38;;;;;;;3.40;0.90;;;14.70;75.50;;;;;;5062268;28;20489;-79
2023/04/14 08:22:03;;;;;;;5.47;0.97;;;14.60;74.30;;;;;;5054930;28;20511;-79
2023/04/14 08:24:29;;;;;;;4.80;1.33;;;14.80;75.30;;;;;;5053785;28;20190;-78
2023/04/14 08:26:55;;;;;;;2.43;1.00;;;15.10;73.60;;;;;;5060528;28;20209;-79
2023/04/14 08:29:21;;;;;;;3.20;1.00;;;15.10;74.20;;;;;;5060355;28;20427;-78
2023/04/14 08:31:47;;;;;;;4.00;0.90;;;15.90;71.20;;;;;;5058147;28;20180;-78
2023/04/14 08:34:13;;;;;;;2.57;1.13;;;15.90;70.10;;;;;;5063553;28;20741;-78
2023/04/14 08:36:39;;;;;;;2.50;1.40;;;16.10;70.00;;;;;;5058187;28;20197;-79
2023/04/14 08:39:05;;;;;;;2.67;0.80;;;16.10;68.20;;;;;;5061016;28;20423;-79
2023/04/14 08:41:33;;;;;;;2.80;0.77;;;16.10;66.60;;;;;;5060715;28;20186;-78
2023/04/14 08:44:00;;;;;;;2.87;1.07;;;16.00;64.50;;;;;;5062918;28;20189;-79
2023/04/14 08:46:27;;;;;;;20.03;0.83;;;15.70;63.00;;;;;;5060560;28;20507;-79
2023/04/14 08:49:03;;;;;;;2.37;0.93;;;15.20;66.70;;;;;;5057924;28;21099;-78
2023/04/14 08:51:35;;;;;;;3.20;1.43;;;14.60;70.90;;;;;;5056289;28;20742;-78
2023/04/14 08:54:11;;;;;;;5.83;0.73;;;14.90;68.10;;;;;;5059051;28;20416;-78
2023/04/14 08:56:40;;;;;;;1.40;0.60;;;14.80;65.80;;;;;;5058528;28;20427;-78
2023/04/14 08:59:07;;;;;;;2.13;0.83;;;15.00;66.50;;;;;;5059751;28;20428;-78
2023/04/14 09:01:34;;;;;;;2.00;1.03;;;15.50;65.20;;;;;;5067093;28;20420;-78
2023/04/14 09:04:03;;;;;;;1.60;0.70;;;15.20;68.50;;;;;;5057430;28;20477;-79
2023/04/14 09:06:30;;;;;;;8.80;1.07;;;15.10;66.00;;;;;;5056586;28;20554;-79
2023/04/14 09:08:57;;;;;;;4.23;1.10;;;14.90;66.00;;;;;;5060922;28;20451;-78
2023/04/14 09:11:23;;;;;;;3.70;1.30;;;14.80;64.50;;;;;;5063514;28;20492;-79
2023/04/14 09:13:49;;;;;;;7.37;1.00;;;15.10;66.80;;;;;;5056001;28;20462;-78
2023/04/14 09:16:17;;;;;;;4.30;0.93;;;15.60;63.90;;;;;;5054695;28;20432;-78
2023/04/14 09:18:44;;;;;;;2.60;0.80;;;16.00;62.70;;;;;;5057758;28;20428;-79
2023/04/14 09:21:10;;;;;;;2.07;1.13;;;15.60;64.80;;;;;;5060722;28;20434;-78
2023/04/14 09:23:36;;;;;;;3.00;1.07;;;16.00;60.50;;;;;;5053999;28;20428;-79
2023/04/14 09:26:07;;;;;;;2.77;0.90;;;15.20;62.00;;;;;;5053854;28;20478;-78
2023/04/14 09:28:34;;;;;;;2.17;0.80;;;15.00;62.70;;;;;;5058585;28;20415;-78
2023/04/14 09:31:01;;;;;;;6.20;1.03;;;14.80;64.80;;;;;;5055649;28;20432;-79
2023/04/14 09:33:27;;;;;;;3.37;1.20;;;14.70;63.60;;;;;;5053530;28;20428;-80
2023/04/14 09:35:53;;;;;;;2.30;0.60;;;14.70;64.60;;;;;;5061002;28;20430;-78
2023/04/14 09:38:38;;;;;;;3.30;0.60;;;14.80;66.20;;;;;;5058381;28;20428;-79
2023/04/14 09:41:07;;;;;;;2.03;0.77;;;15.70;61.20;;;;;;5061850;28;20453;-79
2023/04/14 09:43:33;;;;;;;3.07;0.90;;;15.50;63.00;;;;;;5063091;28;20428;-79
2023/04/14 09:46:08;;;;;;;2.77;0.80;;;15.20;63.50;;;;;;5059617;28;20474;-79
2023/04/14 09:48:36;;;;;;;4.70;1.13;;;15.60;62.00;;;;;;5055456;28;20427;-79
2023/04/14 09:51:08;;;;;;;1.97;0.80;;;15.60;62.20;;;;;;5058138;28;20416;-81
2023/04/14 09:53:36;;;;;;;12.53;1.00;;;15.70;60.50;;;;;;5059645;28;20465;-79
2023/04/14 09:56:11;;;;;;;10.07;0.93;;;15.20;62.50;;;;;;5062971;28;20426;-79
2023/04/14 09:58:42;;;;;;;3.40;1.17;;;14.90;61.90;;;;;;5057402;28;20430;-79
2023/04/14 10:01:18;;;;;;;1.30;0.60;;;13.90;63.20;;;;;;5062580;28;20427;-79
2023/04/14 10:03:48;;;;;;;2.60;1.23;;;13.20;66.00;;;;;;5061214;28;20538;-78
2023/04/14 10:06:21;;;;;;;2.43;0.90;;;12.80;67.70;;;;;;5054703;28;20948;-79
2023/04/14 10:08:52;;;;;;;4.07;1.03;;;12.80;65.90;;;;;;5061657;28;20828;-79
2023/04/14 10:11:26;;;;;;;4.03;1.43;;;12.90;65.70;;;;;;5059637;28;20444;-78
2023/04/14 10:13:57;;;;;;;3.10;0.93;;;12.90;66.30;;;;;;5063567;28;20541;-78
2023/04/14 10:16:23;;;;;;;7.47;0.80;;;12.80;65.60;;;;;;5057591;28;21012;-79
2023/04/14 10:18:50;;;;;;;3.47;1.17;;;12.70;65.50;;;;;;5056222;28;20420;-79
2023/04/14 10:21:16;;;;;;;2.70;0.93;;;12.80;69.00;;;;;;5065021;28;20419;-79
2023/04/14 10:23:43;;;;;;;2.47;1.10;;;13.00;68.90;;;;;;5055099;28;20549;-79
2023/04/14 10:26:10;;;;;;;9.40;1.50;;;13.20;69.40;;;;;;5058326;28;20208;-79
2023/04/14 10:28:43;;;;;;;4.00;0.87;;;13.20;69.30;;;;;;5061066;28;20469;-79
2023/04/14 10:31:26;;;;;;;2.60;0.80;;;13.50;65.00;;;;;;5056160;28;20416;-79
2023/04/14 10:33:52;;;;;;;2.30;1.00;;;13.40;66.10;;;;;;5054092;28;22154;-79
2023/04/14 10:36:26;;;;;;;4.97;1.17;;;13.50;68.10;;;;;;5057161;28;20503;-79
2023/04/14 10:38:58;;;;;;;2.00;1.20;;;13.60;66.10;;;;;;5057289;28;20180;-79
2023/04/14 10:41:24;;;;;;;1.80;0.90;;;13.70;62.10;;;;;;5055756;28;20478;-79
2023/04/14 10:43:50;;;;;;;4.60;0.97;;;13.70;61.10;;;;;;5060932;28;20419;-78
2023/04/14 10:46:15;;;;;;;5.40;1.10;;;13.50;64.90;;;;;;5060829;28;20213;-79
2023/04/14 10:48:45;;;;;;;1.60;0.60;;;13.60;65.50;;;;;;5059574;28;20205;-79
2023/04/14 10:51:11;;;;;;;1.30;0.60;;;13.80;68.60;;;;;;5061809;28;20182;-79
2023/04/14 10:53:46;;;;;;;5.03;0.70;;;13.70;64.80;;;;;;5059347;28;20420;-80
2023/04/14 10:56:12;;;;;;;5.90;0.90;;;13.80;61.70;;;;;;5062162;28;20231;-79
2023/04/14 10:58:38;;;;;;;4.00;1.10;;;13.70;62.90;;;;;;5056768;28;20416;-79
2023/04/14 11:01:31;;;;;;;6.63;1.20;;;13.70;64.50;;;;;;5062637;28;20506;-79
2023/04/14 11:04:09;;;;;;;5.17;1.80;;;14.00;67.60;;;;;;5056283;28;20193;-79
2023/04/14 11:06:48;;;;;;;1.53;0.70;;;14.20;62.10;;;;;;5054662;28;20478;-78
2023/04/14 11:09:25;;;;;;;1.80;0.80;;;14.10;59.20;;;;;;5059155;28;20466;-80
2023/04/14 11:11:51;;;;;;;2.27;0.60;;;14.10;64.80;;;;;;5050345;28;20424;-79
2023/04/14 11:14:24;;;;;;;2.70;0.87;;;13.90;62.40;;;;;;5056200;28;20847;-79
2023/04/14 11:16:50;;;;;;;3.40;0.60;;;14.20;60.20;;;;;;5056967;28;20276;-79
2023/04/14 11:19:16;;;;;;;6.27;2.10;;;14.60;63.50;;;;;;5054881;28;20424;-79
2023/04/14 11:21:49;;;;;;;1.90;1.10;;;14.80;63.00;;;;;;5056505;28;20926;-79
2023/04/14 11:24:15;;;;;;;2.60;0.97;;;14.50;64.80;;;;;;5057476;28;20416;-78
2023/04/14 11:26:43;;;;;;;19.73;4.27;;;14.30;63.00;;;;;;5061019;28;20471;-79
2023/04/14 11:29:08;;;;;;;4.73;2.90;;;13.90;62.30;;;;;;5062169;28;20411;-79
2023/04/14 11:31:34;;;;;;;1.30;0.57;;;13.60;63.30;;;;;;5059539;28;20497;-79
2023/04/14 11:34:05;;;;;;;7.73;2.60;;;13.40;64.30;;;;;;5056931;28;20265;-79
2023/04/14 11:36:35;;;;;;;3.37;0.73;;;13.40;63.80;;;;;;5054284;28;20192;-78
2023/04/14 11:39:01;;;;;;;3.43;0.83;;;13.40;63.60;;;;;;5054649;28;20426;-79
2023/04/14 11:41:27;;;;;;;3.97;1.67;;;13.30;63.10;;;;;;5058989;28;20431;-79
2023/04/14 11:43:53;;;;;;;2.53;1.03;;;13.50;64.60;;;;;;5055723;28;20525;-79
2023/04/14 11:46:20;;;;;;;1.90;0.63;;;13.70;64.10;;;;;;5059531;28;20209;-79
2023/04/14 11:48:46;;;;;;;3.50;0.87;;;14.00;61.40;;;;;;5064805;28;20416;-79
2023/04/14 11:51:13;;;;;;;1.70;0.93;;;14.10;60.70;;;;;;5057741;28;21255;-79
2023/04/14 11:53:42;;;;;;;7.43;1.57;;;14.30;60.80;;;;;;5056572;28;20494;-78
2023/04/14 11:56:08;;;;;;;4.00;1.10;;;14.30;62.50;;;;;;5057843;28;20447;-79
2023/04/14 11:58:33;;;;;;;13.83;1.27;;;14.40;60.90;;;;;;5055596;28;20428;-79
2023/04/14 12:00:59;;;;;;;2.27;0.83;;;14.80;59.90;;;;;;5057928;28;20216;-78
2023/04/14 12:03:31;;;;;;;2.50;1.23;;;14.70;57.40;;;;;;5065951;28;20191;-79
2023/04/14 12:06:01;;;;;;;9.00;1.13;;;14.80;57.60;;;;;;5054903;28;20627;-79
2023/04/14 12:08:31;;;;;;;4.03;0.70;;;14.80;59.30;;;;;;5059908;28;20426;-78
2023/04/14 12:11:09;;;;;;;1.70;0.90;;;15.00;61.90;;;;;;5062863;28;20557;-78
2023/04/14 12:13:42;;;;;;;2.00;0.70;;;15.50;57.60;;;;;;5064153;28;20411;-78
2023/04/14 12:16:09;;;;;;;4.70;0.90;;;15.50;57.00;;;;;;5059303;28;20416;-78
2023/04/14 12:18:34;;;;;;;7.50;1.20;;;15.20;58.90;;;;;;5062146;28;20919;-79
2023/04/14 12:21:03;;;;;;;2.50;0.70;;;14.70;60.20;;;;;;5063660;28;20423;-79
2023/04/14 12:23:28;;;;;;;4.67;1.17;;;14.50;62.10;;;;;;5064438;28;20177;-79
2023/04/14 12:25:54;;;;;;;2.07;0.70;;;14.80;60.70;;;;;;5058806;28;20490;-79
2023/04/14 12:28:28;;;;;;;2.87;0.70;;;14.90;59.50;;;;;;5062180;28;20186;-79
2023/04/14 12:31:02;;;;;;;2.63;1.00;;;15.30;59.60;;;;;;5058621;28;20416;-79
2023/04/14 12:33:30;;;;;;;2.73;0.90;;;15.10;58.70;;;;;;5061445;28;20456;-79
2023/04/14 12:36:11;;;;;;;2.10;0.80;;;14.50;59.00;;;;;;5058689;28;20456;-79
2023/04/14 12:38:37;;;;;;;6.77;1.17;;;14.50;59.70;;;;;;5061344;28;20420;-79
2023/04/14 12:41:04;;;;;;;1.83;0.80;;;14.40;62.70;;;;;;5061366;28;20469;-79
2023/04/14 12:43:34;;;;;;;2.23;0.90;;;14.60;65.40;;;;;;5057721;28;20420;-79
2023/04/14 12:46:02;;;;;;;1.70;0.70;;;14.80;62.40;;;;;;5064435;28;20467;-79
2023/04/14 12:48:57;;;;;;;2.63;1.00;;;15.30;60.40;;;;;;5063780;28;20424;-80
2023/04/14 12:51:23;;;;;;;5.37;0.90;;;15.50;59.50;;;;;;5044804;28;20429;-80
2023/04/14 12:53:49;;;;;;;1.80;0.90;;;15.60;55.60;;;;;;5066132;28;20421;-80
2023/04/14 12:56:20;;;;;;;13.43;1.07;;;15.90;57.00;;;;;;5055468;28;20197;-80
2023/04/14 12:58:47;;;;;;;2.57;0.80;;;15.70;61.50;;;;;;5061380;28;20235;-79